createdAt,value
2017-07-23T08:36:22.644Z,48.93
2017-07-23T08:38:50.153Z,48.56
2017-07-23T08:41:17.704Z,48.37
2017-07-23T08:43:45.227Z,48.39
2017-07-23T08:46:12.782Z,48.14
2017-07-23T08:48:40.302Z,47.73
2017-07-23T08:51:07.853Z,47.54
2017-07-23T08:53:35.871Z,47.59
2017-07-23T08:56:03.434Z,46.90
2017-07-23T08:58:30.955Z,46.34
2017-07-23T09:00:58.505Z,45.95
2017-07-23T09:03:26.026Z,46.24
2017-07-23T09:05:53.582Z,45.98
2017-07-23T09:08:21.107Z,45.25
2017-07-23T09:10:48.662Z,46.05
2017-07-23T09:13:16.178Z,45.83
2017-07-23T09:15:43.748Z,45.97
2017-07-23T09:18:11.271Z,46.53
2017-07-23T09:20:38.791Z,46.99
2017-07-23T09:23:06.336Z,47.50
2017-07-23T09:25:33.855Z,47.66
2017-07-23T09:28:01.408Z,47.85
2017-07-23T09:30:28.931Z,47.99
2017-07-23T09:32:56.478Z,47.97
2017-07-23T09:35:24.008Z,47.64
2017-07-23T09:37:51.595Z,47.54
2017-07-23T09:40:19.109Z,47.40
2017-07-23T09:42:46.664Z,46.72
2017-07-23T09:45:14.183Z,46.37
2017-07-23T09:47:41.740Z,46.18
2017-07-23T09:50:09.263Z,45.84
2017-07-23T09:52:36.815Z,45.87
2017-07-23T09:55:04.332Z,46.08
2017-07-23T09:57:31.891Z,46.05
2017-07-23T09:59:59.413Z,45.82
2017-07-23T10:02:26.930Z,45.47
2017-07-23T10:04:54.485Z,45.60
2017-07-23T10:07:22.137Z,45.54
2017-07-23T10:09:49.690Z,45.19
2017-07-23T10:12:17.206Z,45.19
2017-07-23T10:14:44.761Z,44.92
2017-07-23T10:17:12.282Z,45.07
2017-07-23T10:19:39.840Z,45.30
2017-07-23T10:22:07.355Z,45.31
2017-07-23T10:24:34.907Z,44.98
2017-07-23T10:27:02.422Z,45.22
2017-07-23T10:29:29.969Z,45.20
2017-07-23T10:31:57.492Z,45.21
2017-07-23T10:34:25.069Z,45.22
2017-07-23T10:36:52.589Z,44.88
2017-07-23T10:39:20.140Z,45.04
2017-07-23T10:41:47.666Z,44.39
2017-07-23T10:44:15.224Z,44.77
2017-07-23T10:46:42.735Z,44.67
2017-07-23T10:49:10.255Z,44.79
2017-07-23T10:51:37.818Z,44.43
2017-07-23T10:54:05.338Z,44.66
2017-07-23T10:56:32.930Z,44.78
2017-07-23T10:59:00.469Z,44.53
2017-07-23T11:01:28.144Z,44.71
2017-07-23T11:03:55.667Z,44.45
2017-07-23T11:06:23.236Z,44.86
2017-07-23T11:08:50.749Z,44.82
2017-07-23T11:11:18.310Z,44.79
2017-07-23T11:13:45.947Z,44.76
2017-07-23T11:16:13.513Z,44.58
2017-07-23T11:18:41.129Z,44.00
2017-07-23T11:21:08.687Z,43.92
2017-07-23T11:23:37.089Z,44.00
2017-07-23T11:26:04.670Z,44.28
2017-07-23T11:28:32.224Z,44.06
2017-07-23T11:30:59.745Z,43.94
2017-07-23T11:33:27.309Z,43.59
2017-07-23T11:35:54.822Z,43.77
2017-07-23T11:38:22.373Z,43.85
2017-07-23T11:40:49.906Z,43.49
2017-07-23T11:43:17.567Z,43.56
2017-07-23T11:45:45.086Z,43.83
2017-07-23T11:48:12.638Z,43.81
2017-07-23T11:50:40.159Z,44.03
2017-07-23T11:53:07.708Z,44.07
2017-07-23T11:55:35.233Z,44.19
2017-07-23T11:58:02.792Z,43.43
2017-07-23T12:00:30.312Z,43.61
2017-07-23T12:02:57.857Z,43.62
2017-07-23T12:05:25.491Z,43.95
2017-07-23T12:07:53.040Z,44.08
2017-07-23T12:10:20.661Z,43.96
2017-07-23T12:12:48.220Z,43.87
2017-07-23T12:15:15.747Z,43.48
2017-07-23T12:17:43.285Z,44.48
2017-07-23T12:20:10.845Z,43.99
2017-07-23T12:22:38.365Z,43.93
2017-07-23T12:25:05.906Z,43.89
2017-07-23T12:27:33.437Z,44.15
2017-07-23T12:30:01.176Z,44.06
2017-07-23T12:32:29.211Z,43.89
2017-07-23T12:34:57.034Z,44.08
2017-07-23T12:37:25.048Z,44.10
2017-07-23T12:39:53.334Z,44.03
2017-07-23T12:42:20.935Z,43.39
2017-07-23T12:44:49.459Z,43.14
2017-07-23T12:47:17.655Z,43.22
2017-07-23T12:49:45.510Z,43.16
2017-07-23T12:52:13.111Z,43.74
2017-07-23T12:54:40.738Z,43.54
2017-07-23T12:57:08.808Z,43.72
2017-07-23T12:59:36.968Z,43.54
2017-07-23T13:02:05.332Z,43.72
2017-07-23T13:04:33.525Z,43.45
2017-07-23T13:07:01.870Z,43.54
2017-07-23T13:09:30.021Z,43.50
2017-07-23T13:11:57.691Z,43.48
2017-07-23T13:14:25.208Z,43.24
2017-07-23T13:16:52.762Z,43.35
2017-07-23T13:19:20.281Z,43.14
2017-07-23T13:21:47.832Z,43.35
2017-07-23T13:24:15.346Z,43.43
2017-07-23T13:26:42.901Z,43.52
2017-07-23T13:29:10.417Z,43.59
2017-07-23T13:31:37.961Z,43.36
2017-07-23T13:34:05.473Z,43.25
2017-07-23T13:36:33.019Z,43.16
2017-07-23T13:39:00.537Z,43.07
2017-07-23T13:41:28.090Z,42.97
2017-07-23T13:43:55.612Z,42.92
2017-07-23T13:46:23.165Z,42.96
2017-07-23T13:48:50.682Z,42.73
2017-07-23T13:51:18.204Z,43.03
2017-07-23T13:53:45.763Z,42.94
2017-07-23T13:56:13.274Z,43.04
2017-07-23T13:58:40.829Z,43.25
2017-07-23T14:01:08.353Z,43.15
2017-07-23T14:03:35.898Z,43.36
2017-07-23T14:06:03.422Z,43.29
2017-07-23T14:08:30.973Z,43.24
2017-07-23T14:10:58.491Z,43.18
2017-07-23T14:13:26.038Z,43.16
2017-07-23T14:15:53.554Z,43.06
2017-07-23T14:18:21.113Z,43.00
2017-07-23T14:20:48.633Z,42.95
2017-07-23T14:23:16.189Z,42.82
2017-07-23T14:25:43.714Z,42.63
2017-07-23T14:28:11.264Z,43.00
2017-07-23T14:30:38.789Z,42.67
2017-07-23T14:33:06.346Z,42.52
2017-07-23T14:35:33.867Z,42.76
2017-07-23T14:38:01.397Z,42.69
2017-07-23T14:40:28.945Z,42.89
2017-07-23T14:42:56.463Z,42.89
2017-07-23T14:45:24.015Z,42.97
2017-07-23T14:47:51.531Z,42.94
2017-07-23T14:50:19.095Z,43.08
2017-07-23T14:52:46.611Z,43.15
2017-07-23T14:55:14.165Z,42.85
2017-07-23T14:57:41.681Z,42.91
2017-07-23T15:00:09.226Z,43.05
2017-07-23T15:02:36.747Z,43.10
2017-07-23T15:05:04.293Z,43.01
2017-07-23T15:07:31.810Z,42.72
2017-07-23T15:09:59.362Z,42.75
2017-07-23T15:12:26.882Z,42.41
2017-07-23T15:14:54.439Z,42.43
2017-07-23T15:17:21.962Z,42.27
2017-07-23T15:19:49.513Z,42.14
2017-07-23T15:22:17.024Z,42.36
2017-07-23T15:24:44.569Z,42.13
2017-07-23T15:27:12.123Z,42.19
2017-07-23T15:29:39.647Z,42.27
2017-07-23T15:32:07.204Z,42.25
2017-07-23T15:34:34.903Z,42.15
2017-07-23T15:37:02.459Z,41.97
2017-07-23T15:39:29.985Z,42.09
2017-07-23T15:41:57.535Z,42.23
2017-07-23T15:44:25.054Z,42.40
2017-07-23T15:46:52.607Z,42.25
2017-07-23T15:49:20.127Z,42.03
2017-07-23T15:51:47.669Z,42.10
2017-07-23T15:54:15.192Z,42.38
2017-07-23T15:56:42.743Z,42.06
2017-07-23T15:59:10.267Z,42.04
2017-07-23T16:01:37.817Z,41.82
2017-07-23T16:04:05.342Z,41.95
2017-07-23T16:06:32.891Z,41.63
2017-07-23T16:09:00.411Z,41.63
2017-07-23T16:11:27.922Z,41.48
2017-07-23T16:13:55.469Z,41.67
2017-07-23T16:16:22.990Z,41.85
2017-07-23T16:18:50.535Z,41.59
2017-07-23T16:21:18.050Z,41.65
2017-07-23T16:23:45.601Z,41.81
2017-07-23T16:26:13.129Z,41.61
2017-07-23T16:28:40.678Z,41.87
2017-07-23T16:31:08.196Z,42.07
2017-07-23T16:33:36.221Z,41.95
2017-07-23T16:36:03.736Z,41.91
2017-07-23T16:38:31.286Z,42.08
2017-07-23T16:40:58.798Z,42.05
2017-07-23T16:43:26.344Z,42.12
2017-07-23T16:45:53.856Z,42.20
2017-07-23T16:48:21.406Z,42.19
2017-07-23T16:50:48.925Z,42.19
2017-07-23T16:53:16.478Z,42.02
2017-07-23T16:55:43.999Z,42.02
2017-07-23T16:58:11.553Z,42.00
2017-07-23T17:00:39.068Z,42.23
2017-07-23T17:03:06.590Z,42.41
2017-07-23T17:05:34.178Z,42.41
2017-07-23T17:08:01.703Z,42.61
2017-07-23T17:10:29.268Z,42.53
2017-07-23T17:12:56.792Z,42.50
2017-07-23T17:15:24.352Z,42.70
2017-07-23T17:17:51.869Z,42.72
2017-07-23T17:20:19.426Z,42.95
2017-07-23T17:22:46.945Z,42.83
2017-07-23T17:25:14.492Z,42.83
2017-07-23T17:27:42.018Z,43.00
2017-07-23T17:30:09.572Z,43.07
2017-07-23T17:32:37.104Z,43.24
2017-07-23T17:35:04.654Z,43.20
2017-07-23T17:37:32.169Z,43.49
2017-07-23T17:39:59.717Z,43.51
2017-07-23T17:42:27.227Z,43.71
2017-07-23T17:44:54.791Z,43.84
2017-07-23T17:47:22.311Z,43.89
2017-07-23T17:49:49.834Z,43.95
2017-07-23T17:52:17.388Z,44.03
2017-07-23T17:54:44.905Z,44.04
2017-07-23T17:57:12.463Z,44.07
2017-07-23T17:59:39.975Z,44.10
2017-07-23T18:02:07.525Z,44.04
2017-07-23T18:04:35.052Z,43.89
2017-07-23T18:07:02.600Z,43.99
2017-07-23T18:09:30.121Z,43.78
2017-07-23T18:11:57.678Z,43.62
2017-07-23T18:14:25.201Z,43.82
2017-07-23T18:16:52.756Z,43.71
2017-07-23T18:19:20.273Z,43.65
2017-07-23T18:21:47.813Z,43.79
2017-07-23T18:24:15.325Z,43.95
2017-07-23T18:26:42.871Z,43.89
2017-07-23T18:29:10.397Z,43.83
2017-07-23T18:31:37.949Z,43.91
2017-07-23T18:34:05.462Z,44.06
2017-07-23T18:36:32.994Z,44.05
2017-07-23T18:39:00.549Z,44.16
2017-07-23T18:41:28.063Z,44.20
2017-07-23T18:43:55.610Z,44.27
2017-07-23T18:46:23.125Z,44.42
2017-07-23T18:48:50.679Z,44.43
2017-07-23T18:51:18.196Z,44.46
2017-07-23T18:53:45.748Z,44.51
2017-07-23T18:56:13.259Z,44.60
2017-07-23T18:58:40.817Z,44.71
2017-07-23T19:01:08.341Z,44.69
2017-07-23T19:03:36.169Z,44.70
2017-07-23T19:06:03.689Z,44.70
2017-07-23T19:08:31.250Z,44.73
2017-07-23T19:10:58.769Z,44.77
2017-07-23T19:13:26.337Z,44.79
2017-07-23T19:15:53.863Z,44.82
2017-07-23T19:18:21.382Z,44.92
2017-07-23T19:20:48.936Z,44.94
2017-07-23T19:23:16.450Z,44.95
2017-07-23T19:25:43.996Z,45.00
2017-07-23T19:28:11.519Z,45.15
2017-07-23T19:30:39.069Z,45.38
2017-07-23T19:33:06.588Z,45.50
2017-07-23T19:35:34.134Z,45.62
2017-07-23T19:38:01.657Z,45.87
2017-07-23T19:40:29.213Z,45.88
2017-07-23T19:42:56.733Z,45.98
2017-07-23T19:45:24.289Z,46.09
2017-07-23T19:47:51.820Z,46.21
2017-07-23T19:50:19.397Z,46.37
2017-07-23T19:52:46.914Z,46.41
2017-07-23T19:55:14.435Z,46.38
2017-07-23T19:57:41.993Z,46.08
2017-07-23T20:00:09.509Z,46.07
2017-07-23T20:02:37.067Z,46.22
2017-07-23T20:05:04.594Z,46.53
2017-07-23T20:07:32.149Z,46.43
2017-07-23T20:09:59.672Z,46.30
2017-07-23T20:12:27.225Z,46.31
2017-07-23T20:14:54.738Z,46.33
2017-07-23T20:17:22.296Z,46.48
2017-07-23T20:19:49.814Z,46.63
2017-07-23T20:22:17.359Z,46.66
2017-07-23T20:24:44.877Z,46.61
2017-07-23T20:27:12.432Z,46.57
2017-07-23T20:29:39.950Z,46.62
2017-07-23T20:32:07.509Z,46.62
2017-07-23T20:34:35.025Z,46.59
2017-07-23T20:37:02.588Z,46.62
2017-07-23T20:39:30.110Z,46.59
2017-07-23T20:41:57.631Z,46.66
2017-07-23T20:44:25.182Z,46.69
2017-07-23T20:46:52.704Z,46.79
2017-07-23T20:49:20.262Z,46.74
2017-07-23T20:51:47.916Z,47.00
2017-07-23T20:54:15.476Z,46.79
2017-07-23T20:56:43.040Z,47.17
2017-07-23T20:59:10.683Z,46.90
2017-07-23T21:01:38.466Z,47.05
2017-07-23T21:04:06.488Z,46.97
2017-07-23T21:06:34.345Z,47.06
2017-07-23T21:09:03.139Z,46.92
2017-07-23T21:11:31.201Z,47.15
2017-07-23T21:13:58.908Z,47.02
2017-07-23T21:16:26.662Z,46.99
2017-07-23T21:18:54.340Z,46.97
2017-07-23T21:21:22.120Z,47.08
2017-07-23T21:23:49.733Z,47.08
2017-07-23T21:26:18.233Z,46.92
2017-07-23T21:28:45.996Z,46.54
2017-07-23T21:31:13.582Z,46.91
2017-07-23T21:33:41.141Z,47.00
2017-07-23T21:36:08.685Z,46.75
2017-07-23T21:38:36.212Z,46.56
2017-07-23T21:41:03.760Z,46.86
2017-07-23T21:43:31.303Z,46.74
2017-07-23T21:45:58.856Z,47.06
2017-07-23T21:48:26.390Z,47.33
2017-07-23T21:50:53.952Z,47.56
2017-07-23T21:53:21.465Z,47.84
2017-07-23T21:55:49.025Z,47.89
2017-07-23T21:58:16.560Z,47.74
2017-07-23T22:00:44.175Z,47.71
2017-07-23T22:03:11.693Z,47.75
2017-07-23T22:05:39.254Z,47.73
2017-07-23T22:08:06.785Z,47.77
2017-07-23T22:10:34.301Z,47.88
2017-07-23T22:13:01.844Z,47.87
2017-07-23T22:15:29.365Z,47.97
2017-07-23T22:17:56.914Z,48.08
2017-07-23T22:20:24.445Z,48.07
2017-07-23T22:22:52.001Z,48.19
2017-07-23T22:25:19.519Z,48.34
2017-07-23T22:27:47.069Z,48.40
2017-07-23T22:30:14.584Z,48.43
2017-07-23T22:32:42.138Z,48.61
2017-07-23T22:35:09.665Z,48.60
2017-07-23T22:37:37.215Z,48.46
2017-07-23T22:40:04.742Z,48.33
2017-07-23T22:42:32.300Z,48.36
2017-07-23T22:44:59.823Z,48.38
2017-07-23T22:47:27.366Z,48.41
2017-07-23T22:49:54.882Z,48.57
2017-07-23T22:52:22.414Z,48.56
2017-07-23T22:54:49.965Z,48.63
2017-07-23T22:57:17.486Z,48.62
2017-07-23T22:59:45.043Z,48.55
2017-07-23T23:02:12.559Z,48.62
2017-07-23T23:04:40.111Z,48.57
2017-07-23T23:07:07.629Z,48.60
2017-07-23T23:09:35.174Z,48.62
2017-07-23T23:12:02.698Z,48.60
2017-07-23T23:14:30.249Z,48.65
2017-07-23T23:16:57.762Z,48.82
2017-07-23T23:19:25.306Z,48.94
2017-07-23T23:21:52.830Z,49.05
2017-07-23T23:24:20.369Z,49.13
2017-07-23T23:26:47.880Z,49.05
2017-07-23T23:29:15.428Z,48.99
2017-07-23T23:31:42.942Z,49.15
2017-07-23T23:34:10.487Z,49.06
2017-07-23T23:36:38.009Z,49.02
2017-07-23T23:39:05.562Z,48.97
2017-07-23T23:41:33.084Z,49.12
2017-07-23T23:44:00.603Z,49.01
2017-07-23T23:46:28.147Z,49.04
2017-07-23T23:48:55.660Z,49.03
2017-07-23T23:51:23.220Z,49.09
2017-07-23T23:53:50.737Z,49.16
2017-07-23T23:56:18.295Z,49.25
2017-07-23T23:58:45.812Z,49.33
